createdAt,value
2023-02-13T00:00:04.914Z,48.99
2023-02-13T00:01:26.013Z,49.27
2023-02-13T00:02:46.839Z,49.59
2023-02-13T00:04:07.565Z,49.44
2023-02-13T00:05:28.180Z,49.36
2023-02-13T00:06:48.967Z,49.61
2023-02-13T00:08:10.625Z,49.57
2023-02-13T00:09:31.394Z,49.51
2023-02-13T00:10:52.276Z,49.22
2023-02-13T00:12:13.338Z,49.61
2023-02-13T00:13:34.608Z,49.28
2023-02-13T00:14:58.060Z,49.50
2023-02-13T00:16:18.864Z,48.94
2023-02-13T00:17:39.759Z,49.30
2023-02-13T00:19:00.467Z,49.31
2023-02-13T00:20:21.753Z,48.87
2023-02-13T00:21:42.613Z,49.21
2023-02-13T00:23:03.417Z,49.34
2023-02-13T00:24:24.280Z,48.99
2023-02-13T00:25:45.313Z,49.51
2023-02-13T00:27:08.659Z,49.34
2023-02-13T00:28:29.488Z,49.44
2023-02-13T00:29:50.544Z,49.58
2023-02-13T00:31:15.239Z,49.03
2023-02-13T00:32:36.025Z,49.57
2023-02-13T00:33:56.759Z,49.62
2023-02-13T00:35:17.864Z,49.44
2023-02-13T00:36:38.837Z,49.64
2023-02-13T00:37:59.681Z,49.31
2023-02-13T00:39:20.245Z,49.46
2023-02-13T00:40:42.252Z,49.46
2023-02-13T00:42:03.330Z,49.28
2023-02-13T00:43:26.268Z,49.38
2023-02-13T00:44:51.149Z,49.54
2023-02-13T00:46:14.569Z,49.35
2023-02-13T00:47:35.266Z,49.41
2023-02-13T00:48:58.544Z,49.27
2023-02-13T00:50:19.559Z,49.49
2023-02-13T00:51:40.438Z,49.18
2023-02-13T00:53:01.084Z,48.84
2023-02-13T00:54:21.486Z,49.48
2023-02-13T00:55:45.113Z,49.45
2023-02-13T00:57:05.708Z,48.96
2023-02-13T00:58:26.251Z,49.22
2023-02-13T00:59:51.875Z,49.28
2023-02-13T01:01:15.351Z,49.63
2023-02-13T01:02:36.559Z,48.96
2023-02-13T01:03:57.502Z,49.02
2023-02-13T01:05:18.143Z,49.48
2023-02-13T01:06:38.844Z,49.03
2023-02-13T01:08:00.650Z,49.11
2023-02-13T01:09:21.083Z,49.39
2023-02-13T01:10:42.096Z,49.23
2023-02-13T01:12:02.974Z,48.79
2023-02-13T01:13:24.034Z,49.42
2023-02-13T01:14:44.991Z,49.21
2023-02-13T01:16:06.038Z,48.89
2023-02-13T01:17:29.555Z,48.91
2023-02-13T01:18:50.575Z,49.10
2023-02-13T01:20:12.404Z,48.90
2023-02-13T01:21:35.364Z,48.90
2023-02-13T01:22:59.172Z,49.32
2023-02-13T01:24:21.912Z,49.22
2023-02-13T01:25:45.678Z,49.02
2023-02-13T01:27:06.153Z,48.92
2023-02-13T01:28:27.200Z,49.11
2023-02-13T01:29:48.658Z,49.51
2023-02-13T01:31:09.799Z,49.36
2023-02-13T01:32:35.162Z,49.19
2023-02-13T01:33:56.285Z,49.13
2023-02-13T01:35:16.875Z,49.54
2023-02-13T01:36:37.465Z,49.07
2023-02-13T01:37:58.086Z,49.30
2023-02-13T01:39:18.842Z,49.49
2023-02-13T01:40:46.548Z,49.50
2023-02-13T01:42:14.631Z,49.44
2023-02-13T01:43:51.552Z,49.16
2023-02-13T01:45:25.018Z,49.07
2023-02-13T01:46:46.018Z,48.88
2023-02-13T01:48:13.819Z,48.95
2023-02-13T01:49:34.528Z,49.03
2023-02-13T01:50:58.322Z,49.17
2023-02-13T01:52:21.506Z,49.43
2023-02-13T01:53:44.317Z,49.03
2023-02-13T01:55:07.001Z,49.53
2023-02-13T01:56:29.802Z,49.18
2023-02-13T01:57:53.101Z,49.25
2023-02-13T01:59:17.106Z,49.45
2023-02-13T02:00:38.873Z,49.27
2023-02-13T02:02:02.589Z,49.10
2023-02-13T02:03:29.173Z,49.23
2023-02-13T02:04:53.643Z,49.49
2023-02-13T02:06:20.522Z,49.27
2023-02-13T02:07:41.681Z,49.21
2023-02-13T02:09:04.034Z,49.08
2023-02-13T02:10:25.154Z,49.04
2023-02-13T02:11:50.675Z,49.17
2023-02-13T02:13:13.096Z,49.46
2023-02-13T02:14:37.782Z,49.37
2023-02-13T02:16:01.589Z,49.06
2023-02-13T02:17:24.154Z,49.09
2023-02-13T02:18:47.359Z,49.37
2023-02-13T02:20:15.080Z,49.13
2023-02-13T02:21:56.361Z,49.15
2023-02-13T02:23:35.612Z,49.04
2023-02-13T02:25:10.689Z,49.18
2023-02-13T02:26:43.935Z,49.02
2023-02-13T02:28:31.683Z,49.54
2023-02-13T02:30:07.350Z,49.00
2023-02-13T02:31:54.747Z,49.22
2023-02-13T02:33:30.246Z,49.43
2023-02-13T02:35:02.451Z,49.40
2023-02-13T02:36:31.240Z,48.75
2023-02-13T02:38:06.714Z,48.86
2023-02-13T02:39:33.673Z,48.97
2023-02-13T02:40:59.444Z,49.34
2023-02-13T02:42:28.650Z,49.23
2023-02-13T02:43:55.158Z,49.18
2023-02-13T02:45:23.301Z,49.11
2023-02-13T02:46:50.383Z,49.31
2023-02-13T02:48:18.154Z,49.19
2023-02-13T02:49:41.088Z,49.14
2023-02-13T02:51:10.648Z,49.40
2023-02-13T02:52:39.385Z,49.37
2023-02-13T02:54:03.919Z,49.05
2023-02-13T02:55:31.072Z,49.05
2023-02-13T02:56:52.817Z,49.27
2023-02-13T02:58:21.516Z,49.27
2023-02-13T02:59:46.547Z,48.85
2023-02-13T03:01:09.783Z,49.55
2023-02-13T03:02:30.713Z,48.81
2023-02-13T03:03:52.660Z,49.07
2023-02-13T03:05:17.904Z,48.88
2023-02-13T03:06:45.002Z,49.30
2023-02-13T03:08:06.661Z,49.38
2023-02-13T03:09:29.469Z,49.28
2023-02-13T03:10:50.084Z,48.71
2023-02-13T03:12:16.231Z,49.41
2023-02-13T03:13:42.501Z,49.32
2023-02-13T03:15:05.970Z,49.18
2023-02-13T03:16:26.663Z,48.83
2023-02-13T03:17:49.548Z,49.14
2023-02-13T03:19:13.510Z,49.02
2023-02-13T03:20:41.559Z,49.27
2023-02-13T03:22:06.681Z,48.83
2023-02-13T03:23:35.341Z,49.28
2023-02-13T03:25:04.730Z,49.20
2023-02-13T03:26:32.587Z,49.02
2023-02-13T03:27:56.140Z,48.96
2023-02-13T03:29:24.749Z,48.94
2023-02-13T03:30:50.993Z,48.81
2023-02-13T03:32:16.879Z,49.12
2023-02-13T03:33:44.485Z,48.93
2023-02-13T03:35:12.818Z,49.44
2023-02-13T03:36:40.449Z,48.91
2023-02-13T03:38:11.431Z,49.40
2023-02-13T03:39:39.025Z,48.89
2023-02-13T03:41:04.340Z,49.07
2023-02-13T03:42:29.170Z,48.95
2023-02-13T03:44:00.646Z,48.97
2023-02-13T03:45:27.604Z,49.32
2023-02-13T03:46:49.889Z,49.25
2023-02-13T03:48:12.539Z,48.92
2023-02-13T03:49:36.366Z,49.43
2023-02-13T03:51:00.748Z,49.21
2023-02-13T03:52:24.904Z,49.15
2023-02-13T03:57:58.181Z,49.19
2023-02-13T03:59:34.598Z,49.05
2023-02-13T04:07:08.691Z,49.50
2023-02-13T04:08:30.411Z,48.99
2023-02-13T04:10:12.497Z,49.17
2023-02-13T04:11:40.264Z,48.89
2023-02-13T04:14:52.664Z,49.36
2023-02-13T04:16:35.471Z,49.51
2023-02-13T04:29:08.566Z,49.63
2023-02-13T04:34:23.587Z,49.24
2023-02-13T04:35:50.664Z,49.55
2023-02-13T04:37:14.383Z,48.92
2023-02-13T04:38:50.701Z,49.52
2023-02-13T04:40:12.510Z,49.26
2023-02-13T04:45:33.314Z,49.52
2023-02-13T04:47:01.316Z,49.28
2023-02-13T04:48:30.565Z,48.85
2023-02-13T04:49:57.713Z,49.38
2023-02-13T04:51:29.621Z,49.37
2023-02-13T05:00:34.737Z,49.17
2023-02-13T05:02:01.179Z,49.48
2023-02-13T05:03:31.590Z,49.54
2023-02-13T05:04:52.605Z,48.76
2023-02-13T05:08:04.456Z,48.96
2023-02-13T05:09:28.757Z,49.15
2023-02-13T05:10:55.860Z,49.30
2023-02-13T05:12:16.984Z,48.88
2023-02-13T05:13:45.674Z,49.34
2023-02-13T05:15:25.106Z,49.20
2023-02-13T05:18:41.829Z,49.22
2023-02-13T05:22:14.405Z,49.30
2023-02-13T05:24:11.152Z,49.22
2023-02-13T05:33:08.809Z,49.27
2023-02-13T05:34:49.213Z,48.84
2023-02-13T05:36:13.077Z,49.26
2023-02-13T05:37:41.895Z,49.62
2023-02-13T05:39:12.896Z,49.24
2023-02-13T05:41:09.511Z,48.96
2023-02-13T05:42:37.630Z,49.16
2023-02-13T05:48:03.613Z,49.49
2023-02-13T05:49:42.192Z,49.18
2023-02-13T05:51:03.335Z,49.51
2023-02-13T05:52:27.302Z,49.53
2023-02-13T05:54:00.426Z,49.51
2023-02-13T05:59:51.629Z,49.45
2023-02-13T06:00:56.207Z,48.83
2023-02-13T06:02:27.602Z,48.85
2023-02-13T06:04:07.157Z,49.17
2023-02-13T06:05:28.077Z,49.36
2023-02-13T06:06:48.996Z,49.38
2023-02-13T06:08:13.973Z,49.27
2023-02-13T06:11:27.936Z,48.46
2023-02-13T06:13:12.997Z,48.86
2023-02-13T06:16:23.102Z,48.83
2023-02-13T06:17:46.672Z,48.82
2023-02-13T06:19:25.004Z,49.50
2023-02-13T06:20:47.629Z,49.57
2023-02-13T06:22:23.118Z,49.54
2023-02-13T06:24:02.225Z,48.62
2023-02-13T06:34:47.389Z,38.89
2023-02-13T06:36:23.446Z,32.47
2023-02-13T06:37:46.913Z,33.16
2023-02-13T06:39:09.241Z,33.93
2023-02-13T06:40:29.812Z,35.25
2023-02-13T06:41:50.347Z,36.93
2023-02-13T06:43:11.242Z,37.38
2023-02-13T06:44:34.110Z,38.42
2023-02-13T06:45:55.141Z,38.96
2023-02-13T06:47:16.347Z,39.19
2023-02-13T06:48:39.454Z,39.38
2023-02-13T06:50:09.823Z,40.23
2023-02-13T06:53:25.553Z,40.94
2023-02-13T06:54:49.404Z,41.22
2023-02-13T06:56:27.683Z,41.34
2023-02-13T06:57:54.976Z,41.27
2023-02-13T06:59:16.144Z,41.49
2023-02-13T07:00:39.193Z,41.70
2023-02-13T07:02:00.264Z,41.61
2023-02-13T07:03:24.504Z,42.13
2023-02-13T07:04:45.598Z,42.19
2023-02-13T07:06:06.650Z,42.19
2023-02-13T07:07:27.378Z,41.84
2023-02-13T07:08:50.903Z,42.23
2023-02-13T07:10:20.817Z,41.68
2023-02-13T07:11:46.916Z,42.02
2023-02-13T07:13:08.185Z,42.36
2023-02-13T07:14:29.288Z,42.10
2023-02-13T07:15:52.378Z,42.17
2023-02-13T07:19:20.956Z,42.50
2023-02-13T07:21:08.845Z,42.37
2023-02-13T07:22:30.759Z,42.23
2023-02-13T07:23:54.634Z,42.67
2023-02-13T07:25:30.454Z,42.34
2023-02-13T07:27:10.037Z,42.40
2023-02-13T07:28:31.565Z,42.09
2023-02-13T07:29:59.265Z,42.68
2023-02-13T07:31:23.882Z,42.50
2023-02-13T07:32:44.984Z,42.71
2023-02-13T07:34:11.078Z,42.23
2023-02-13T07:35:32.224Z,42.44
2023-02-13T07:36:52.976Z,43.03
2023-02-13T07:38:26.589Z,42.41
2023-02-13T07:40:02.464Z,42.74
2023-02-13T07:45:24.263Z,42.97
2023-02-13T07:46:45.378Z,42.78
2023-02-13T07:48:18.364Z,42.92
2023-02-13T07:49:39.308Z,43.45
2023-02-13T07:51:00.660Z,43.25
2023-02-13T07:52:21.482Z,43.64
2023-02-13T07:53:42.241Z,44.09
2023-02-13T07:55:28.361Z,43.82
2023-02-13T07:56:58.449Z,43.99
2023-02-13T07:58:31.547Z,44.08
2023-02-13T08:02:04.087Z,43.83
2023-02-13T08:03:25.323Z,43.73
2023-02-13T08:04:46.027Z,43.97
2023-02-13T08:06:07.416Z,44.25
2023-02-13T08:07:28.109Z,44.27
2023-02-13T08:08:52.366Z,44.11
2023-02-13T08:10:14.140Z,43.85
2023-02-13T08:11:37.646Z,43.67
2023-02-13T08:13:01.121Z,43.68
2023-02-13T08:14:31.617Z,44.28
2023-02-13T08:16:08.219Z,44.19
2023-02-13T08:17:29.181Z,43.75
2023-02-13T08:18:49.888Z,43.62
2023-02-13T08:20:11.636Z,44.03
2023-02-13T08:21:35.453Z,44.44
2023-02-13T08:23:03.075Z,43.92
2023-02-13T08:24:24.411Z,43.74
2023-02-13T08:27:41.803Z,44.31
2023-02-13T08:31:11.733Z,44.55
2023-02-13T08:32:52.842Z,44.60
2023-02-13T08:34:17.507Z,44.58
2023-02-13T08:36:13.013Z,44.52
2023-02-13T08:37:42.886Z,44.90
2023-02-13T08:39:08.748Z,44.52
2023-02-13T08:40:29.583Z,44.55
2023-02-13T08:41:51.023Z,44.35
2023-02-13T08:43:14.821Z,44.63
2023-02-13T08:46:52.311Z,44.40
2023-02-13T08:48:13.692Z,44.37
2023-02-13T08:49:35.072Z,44.27
2023-02-13T08:51:05.924Z,44.45
2023-02-13T08:52:27.288Z,44.94
2023-02-13T08:54:35.281Z,44.80
2023-02-13T08:55:35.922Z,44.33
2023-02-13T08:56:57.887Z,44.85
2023-02-13T08:58:22.675Z,44.34
2023-02-13T08:59:59.374Z,44.30
2023-02-13T09:01:44.164Z,44.71
2023-02-13T09:03:35.278Z,44.73
2023-02-13T09:08:15.833Z,45.01
2023-02-13T09:09:37.577Z,44.38
2023-02-13T09:10:59.528Z,44.81
2023-02-13T09:12:22.004Z,45.04
2023-02-13T09:13:52.495Z,44.58
2023-02-13T09:15:29.608Z,44.74
2023-02-13T09:17:14.919Z,45.01
2023-02-13T09:18:35.643Z,44.72
2023-02-13T09:19:57.282Z,45.04
2023-02-13T09:21:19.404Z,44.45
2023-02-13T09:23:30.197Z,45.03
2023-02-13T09:25:00.231Z,45.03
2023-02-13T09:26:20.958Z,44.84
2023-02-13T09:27:42.421Z,45.46
2023-02-13T09:29:08.605Z,46.05
2023-02-13T09:30:34.120Z,45.49
2023-02-13T09:33:40.324Z,46.24
2023-02-13T09:36:43.728Z,45.80
2023-02-13T09:38:22.385Z,46.35
2023-02-13T09:39:43.782Z,46.47
2023-02-13T09:41:26.742Z,46.86
2023-02-13T09:44:36.103Z,47.01
2023-02-13T09:46:00.639Z,47.64
2023-02-13T09:47:26.680Z,47.72
2023-02-13T09:48:49.986Z,47.07
2023-02-13T09:50:13.364Z,47.17
2023-02-13T09:51:35.463Z,46.79
2023-02-13T09:52:57.110Z,46.88
2023-02-13T09:55:58.654Z,46.93
2023-02-13T09:57:34.650Z,47.51
2023-02-13T09:58:58.926Z,47.53
2023-02-13T10:00:34.915Z,47.58
2023-02-13T10:02:01.043Z,47.48
2023-02-13T10:03:27.719Z,47.07
2023-02-13T10:04:54.278Z,47.19
2023-02-13T10:08:20.212Z,47.16
2023-02-13T10:09:47.314Z,47.37
2023-02-13T10:11:15.901Z,47.51
2023-02-13T10:12:49.519Z,47.51
2023-02-13T10:17:55.383Z,47.31
2023-02-13T10:19:27.679Z,47.47
2023-02-13T10:20:52.928Z,47.47
2023-02-13T10:22:17.489Z,48.13
2023-02-13T10:29:33.193Z,47.75
2023-02-13T10:38:16.516Z,48.02
2023-02-13T10:41:42.125Z,47.75
2023-02-13T10:43:13.549Z,47.58
2023-02-13T10:44:49.721Z,47.24
2023-02-13T10:46:25.570Z,47.56
2023-02-13T10:49:56.188Z,47.39
2023-02-13T10:52:09.207Z,48.05
2023-02-13T10:53:24.193Z,47.91
2023-02-13T10:55:02.478Z,47.86
2023-02-13T10:56:42.596Z,48.49
2023-02-13T10:58:08.011Z,47.80
2023-02-13T10:59:44.087Z,48.31
2023-02-13T11:01:12.562Z,47.83
2023-02-13T11:06:22.167Z,48.94
2023-02-13T11:07:44.390Z,48.94
2023-02-13T11:09:11.354Z,49.28
2023-02-13T11:10:53.140Z,48.95
2023-02-13T11:19:49.106Z,49.03
2023-02-13T11:21:18.722Z,49.73
2023-02-13T11:24:56.154Z,49.19
2023-02-13T11:26:27.542Z,48.63
2023-02-13T11:28:14.832Z,49.37
2023-02-13T11:29:36.825Z,49.12
2023-02-13T11:31:10.057Z,49.20
2023-02-13T11:32:52.258Z,49.29
2023-02-13T11:34:24.692Z,49.06
2023-02-13T11:35:51.350Z,49.46
2023-02-13T11:37:31.001Z,49.31
2023-02-13T11:38:59.553Z,49.71
2023-02-13T11:40:35.989Z,49.29
2023-02-13T11:42:00.094Z,49.85
2023-02-13T11:43:44.091Z,49.51
2023-02-13T11:45:06.085Z,49.90
2023-02-13T11:50:28.156Z,49.24
2023-02-13T11:59:22.145Z,49.76
2023-02-13T12:00:43.640Z,49.58
2023-02-13T12:02:15.947Z,49.39
2023-02-13T12:03:57.232Z,49.52
2023-02-13T12:05:22.250Z,49.34
2023-02-13T12:06:58.409Z,49.24
2023-02-13T12:08:43.392Z,49.43
2023-02-13T12:10:15.924Z,49.24
2023-02-13T12:11:54.441Z,49.61
2023-02-13T12:20:49.243Z,49.31
2023-02-13T12:22:22.593Z,49.88
2023-02-13T12:27:45.083Z,48.25
2023-02-13T12:29:50.591Z,48.66
2023-02-13T12:31:25.485Z,48.91
2023-02-13T12:32:52.647Z,48.95
2023-02-13T12:34:36.254Z,48.57
2023-02-13T12:36:01.808Z,49.09
2023-02-13T12:39:17.684Z,49.10
2023-02-13T12:41:01.703Z,49.34
2023-02-13T12:42:34.540Z,49.26
2023-02-13T12:46:01.478Z,49.52
2023-02-13T12:47:24.593Z,49.60
2023-02-13T12:51:07.639Z,49.54
2023-02-13T12:53:08.965Z,49.17
2023-02-13T12:54:44.518Z,49.26
2023-02-13T12:56:18.933Z,49.26
2023-02-13T12:59:39.412Z,48.89
2023-02-13T13:01:10.013Z,49.18
2023-02-13T13:02:46.676Z,49.26
2023-02-13T13:07:48.379Z,48.53
2023-02-13T13:09:31.149Z,48.83
2023-02-13T13:11:13.335Z,48.51
2023-02-13T13:12:45.134Z,48.62
2023-02-13T13:14:12.177Z,48.55
2023-02-13T13:15:38.285Z,48.82
2023-02-13T13:17:04.321Z,48.49
2023-02-13T13:18:35.359Z,48.69
2023-02-13T13:20:01.772Z,48.36
2023-02-13T13:21:27.259Z,48.56
2023-02-13T13:24:51.279Z,48.37
2023-02-13T13:28:09.119Z,48.86
2023-02-13T13:29:32.711Z,48.50
2023-02-13T13:30:58.647Z,48.87
2023-02-13T13:32:38.132Z,48.12
2023-02-13T13:34:01.945Z,48.42
2023-02-13T13:35:26.043Z,48.45
2023-02-13T13:36:49.835Z,48.73
2023-02-13T13:38:13.099Z,48.80
2023-02-13T13:39:41.393Z,48.79
2023-02-13T13:41:17.529Z,48.74
2023-02-13T13:42:43.069Z,48.36
2023-02-13T13:44:37.874Z,48.24
2023-02-13T13:46:08.823Z,48.70
2023-02-13T13:47:44.695Z,48.08
2023-02-13T13:49:20.036Z,48.79
2023-02-13T13:50:47.552Z,48.76
2023-02-13T13:52:19.275Z,48.54
2023-02-13T13:54:02.373Z,48.53
2023-02-13T13:55:38.247Z,48.69
2023-02-13T13:57:07.936Z,48.86
2023-02-13T13:58:44.130Z,48.42
2023-02-13T14:02:29.243Z,48.48
2023-02-13T14:06:03.532Z,48.08
2023-02-13T14:07:25.061Z,48.25
2023-02-13T14:08:54.280Z,48.79
2023-02-13T14:12:45.654Z,48.47
2023-02-13T14:14:21.681Z,48.79
2023-02-13T14:16:37.689Z,48.17
2023-02-13T14:17:55.249Z,48.92
2023-02-13T14:19:31.787Z,48.88
2023-02-13T14:20:54.758Z,48.67
2023-02-13T14:22:30.978Z,48.23
2023-02-13T14:23:55.827Z,48.85
2023-02-13T14:25:37.612Z,48.50
2023-02-13T14:27:05.465Z,48.72
2023-02-13T14:28:27.686Z,48.69
2023-02-13T14:29:49.993Z,48.48
2023-02-13T14:31:19.116Z,48.79
2023-02-13T14:36:30.181Z,48.55
2023-02-13T14:39:42.249Z,48.85
2023-02-13T14:41:03.814Z,48.51
2023-02-13T14:42:28.109Z,48.67
2023-02-13T14:43:51.436Z,48.99
2023-02-13T14:45:14.850Z,48.87
2023-02-13T14:46:39.387Z,48.58
2023-02-13T14:48:05.273Z,48.44
2023-02-13T14:49:28.100Z,49.01
2023-02-13T14:50:50.562Z,48.64
2023-02-13T14:52:16.080Z,48.70
2023-02-13T14:53:46.664Z,48.93
2023-02-13T14:55:16.078Z,48.58
2023-02-13T14:58:48.579Z,48.68
2023-02-13T15:00:16.897Z,48.83
2023-02-13T15:01:43.686Z,48.83
2023-02-13T15:05:13.643Z,49.01
2023-02-13T15:06:38.503Z,49.31
2023-02-13T15:08:06.787Z,48.61
2023-02-13T15:09:36.063Z,48.64
2023-02-13T15:11:03.708Z,48.77
2023-02-13T15:13:01.583Z,49.19
2023-02-13T15:14:25.295Z,48.80
2023-02-13T15:15:53.527Z,48.59
2023-02-13T15:17:29.493Z,49.25
2023-02-13T15:18:51.807Z,48.94
2023-02-13T15:20:20.648Z,48.95
2023-02-13T15:22:05.830Z,48.73
2023-02-13T15:23:28.697Z,48.86
2023-02-13T15:24:55.969Z,48.79
2023-02-13T15:26:22.980Z,48.69
2023-02-13T15:28:05.180Z,49.16
2023-02-13T15:29:47.610Z,48.63
2023-02-13T15:31:21.678Z,48.67
2023-02-13T15:32:42.506Z,49.20
2023-02-13T15:34:20.654Z,48.77
2023-02-13T15:35:41.673Z,48.98
2023-02-13T15:37:04.564Z,49.25
2023-02-13T15:38:32.327Z,49.02
2023-02-13T15:42:09.647Z,48.84
2023-02-13T15:43:40.572Z,49.09
2023-02-13T15:50:48.473Z,49.25
2023-02-13T15:56:00.030Z,45.65
2023-02-13T15:58:21.139Z,47.60
2023-02-13T15:59:45.349Z,47.81
2023-02-13T16:01:08.076Z,48.16
2023-02-13T16:02:43.739Z,48.22
2023-02-13T16:04:06.849Z,47.66
2023-02-13T16:05:40.109Z,48.28
2023-02-13T16:11:07.172Z,48.47
2023-02-13T16:12:30.956Z,48.17
2023-02-13T16:14:06.701Z,48.07
2023-02-13T16:15:32.098Z,48.23
2023-02-13T16:16:58.526Z,48.01
2023-02-13T16:18:20.620Z,48.09
2023-02-13T16:19:54.041Z,47.81
2023-02-13T16:21:15.124Z,47.80
2023-02-13T16:22:52.968Z,47.78
2023-02-13T16:26:27.563Z,48.06
2023-02-13T16:27:50.552Z,48.57
2023-02-13T16:33:31.737Z,48.10
2023-02-13T16:34:53.016Z,48.58
2023-02-13T16:36:43.366Z,48.16
2023-02-13T16:38:04.680Z,48.45
2023-02-13T16:39:28.826Z,48.51
2023-02-13T16:40:53.655Z,47.89
2023-02-13T16:44:30.856Z,47.71
2023-02-13T16:46:10.023Z,48.43
2023-02-13T16:47:31.307Z,47.99
2023-02-13T16:49:07.957Z,48.12
2023-02-13T16:50:31.783Z,48.17
2023-02-13T16:51:55.182Z,48.40
2023-02-13T16:55:26.582Z,48.14
2023-02-13T16:56:48.369Z,47.75
2023-02-13T17:02:17.853Z,47.65
2023-02-13T17:03:45.018Z,47.71
2023-02-13T17:05:19.820Z,47.97
2023-02-13T17:06:43.862Z,48.25
2023-02-13T17:08:07.950Z,47.75
2023-02-13T17:09:31.309Z,48.17
2023-02-13T17:11:06.250Z,48.04
2023-02-13T17:14:54.927Z,47.80
2023-02-13T17:16:19.168Z,47.98
2023-02-13T17:21:47.834Z,48.01
2023-02-13T17:23:16.244Z,47.67
2023-02-13T17:24:09.799Z,48.22
2023-02-13T17:24:45.665Z,48.18
2023-02-13T17:29:56.675Z,47.98
2023-02-13T17:33:18.497Z,48.10
2023-02-13T17:34:39.762Z,47.51
2023-02-13T17:36:00.803Z,47.37
2023-02-13T17:37:28.169Z,48.04
2023-02-13T17:38:52.024Z,47.47
2023-02-13T17:40:16.091Z,47.68
2023-02-13T17:41:40.125Z,47.54
2023-02-13T17:43:07.366Z,47.21
2023-02-13T17:44:28.482Z,47.78
2023-02-13T17:45:56.375Z,47.45
2023-02-13T17:47:21.028Z,47.79
2023-02-13T17:48:42.352Z,47.65
2023-02-13T17:50:10.003Z,47.44
2023-02-13T17:51:35.840Z,47.51
2023-02-13T17:52:57.359Z,47.73
2023-02-13T17:54:21.087Z,47.49
2023-02-13T17:55:42.066Z,48.15
2023-02-13T17:57:03.411Z,47.84
2023-02-13T17:58:37.908Z,47.96
2023-02-13T18:00:15.315Z,48.24
2023-02-13T18:01:36.540Z,47.94
2023-02-13T18:02:57.787Z,47.78
2023-02-13T18:04:18.712Z,47.81
2023-02-13T18:06:00.851Z,47.70
2023-02-13T18:07:22.142Z,47.83
2023-02-13T18:08:49.645Z,47.63
2023-02-13T18:10:17.906Z,47.80
2023-02-13T18:12:05.390Z,47.50
2023-02-13T18:15:30.794Z,48.12
2023-02-13T18:16:56.704Z,47.79
2023-02-13T18:18:27.406Z,47.90
2023-02-13T18:19:48.440Z,48.08
2023-02-13T18:21:11.911Z,47.54
2023-02-13T18:22:33.950Z,47.96
2023-02-13T18:24:10.030Z,48.06
2023-02-13T18:25:33.629Z,47.82
2023-02-13T18:26:56.073Z,48.09
2023-02-13T18:28:17.412Z,48.13
2023-02-13T18:29:45.042Z,48.15
2023-02-13T18:31:08.947Z,47.77
2023-02-13T18:32:52.480Z,47.58
2023-02-13T18:34:13.368Z,47.88
2023-02-13T18:35:43.695Z,48.27
2023-02-13T18:37:28.024Z,48.06
2023-02-13T18:38:50.207Z,47.63
2023-02-13T18:42:05.438Z,47.72
2023-02-13T18:43:39.345Z,47.81
2023-02-13T18:46:51.080Z,48.00
2023-02-13T18:48:12.318Z,47.94
2023-02-13T18:49:33.691Z,47.95
2023-02-13T18:51:18.555Z,48.36
2023-02-13T18:52:48.589Z,47.90
2023-02-13T18:54:24.848Z,48.25
2023-02-13T18:55:48.224Z,47.96
2023-02-13T18:57:24.455Z,47.92
2023-02-13T18:58:45.704Z,47.77
2023-02-13T19:00:37.015Z,47.75
2023-02-13T19:01:57.773Z,47.18
2023-02-13T19:03:33.780Z,47.82
2023-02-13T19:06:51.988Z,47.23
2023-02-13T19:08:28.319Z,47.08
2023-02-13T19:09:49.807Z,47.81
2023-02-13T19:11:12.075Z,47.63
2023-02-13T19:12:38.294Z,47.41
2023-02-13T19:13:59.281Z,47.21
2023-02-13T19:17:27.592Z,47.45
2023-02-13T19:19:09.909Z,47.71
2023-02-13T19:22:35.775Z,47.06
2023-02-13T19:23:56.807Z,47.58
2023-02-13T19:25:41.831Z,47.18
2023-02-13T19:27:07.453Z,47.32
2023-02-13T19:28:31.218Z,47.15
2023-02-13T19:31:45.352Z,47.13
2023-02-13T19:34:39.357Z,47.70
2023-02-13T19:36:01.145Z,47.68
2023-02-13T19:37:22.236Z,47.20
2023-02-13T19:38:46.737Z,47.39
2023-02-13T19:40:08.087Z,47.51
2023-02-13T19:41:44.126Z,47.37
2023-02-13T19:43:11.203Z,47.36
2023-02-13T19:44:34.491Z,47.65
2023-02-13T19:46:16.594Z,47.68
2023-02-13T19:48:03.073Z,48.02
2023-02-13T19:49:26.578Z,47.54
2023-02-13T19:50:47.269Z,48.24
2023-02-13T19:52:11.159Z,48.08
2023-02-13T19:53:31.879Z,48.06
2023-02-13T19:54:52.593Z,47.92
2023-02-13T19:56:15.623Z,48.29
2023-02-13T19:57:36.874Z,48.32
2023-02-13T19:58:58.164Z,48.19
2023-02-13T20:00:19.385Z,47.79
2023-02-13T20:01:40.314Z,48.23
2023-02-13T20:03:01.551Z,48.19
2023-02-13T20:04:27.652Z,48.03
2023-02-13T20:05:48.666Z,47.95
2023-02-13T20:07:09.652Z,47.94
2023-02-13T20:08:32.567Z,48.11
2023-02-13T20:09:53.392Z,47.47
2023-02-13T20:11:14.977Z,47.48
2023-02-13T20:12:36.063Z,48.19
2023-02-13T20:13:57.807Z,48.27
2023-02-13T20:15:18.448Z,47.98
2023-02-13T20:16:39.014Z,48.34
2023-02-13T20:18:00.014Z,48.18
2023-02-13T20:19:22.979Z,48.31
2023-02-13T20:20:46.591Z,48.12
2023-02-13T20:22:07.480Z,48.23
2023-02-13T20:23:28.573Z,48.58
2023-02-13T20:24:49.373Z,48.51
2023-02-13T20:26:11.417Z,47.89
2023-02-13T20:27:32.381Z,48.29
2023-02-13T20:28:55.765Z,48.56
2023-02-13T20:30:16.622Z,48.73
2023-02-13T20:31:37.937Z,48.76
2023-02-13T20:32:58.926Z,48.12
2023-02-13T20:34:19.991Z,48.13
2023-02-13T20:35:43.039Z,48.88
2023-02-13T20:37:06.356Z,48.85
2023-02-13T20:38:27.165Z,48.59
2023-02-13T20:39:51.076Z,48.46
2023-02-13T20:41:12.961Z,47.99
2023-02-13T20:42:36.720Z,48.29
2023-02-13T20:44:00.812Z,47.86
2023-02-13T20:45:21.632Z,48.50
2023-02-13T20:46:44.861Z,47.86
2023-02-13T20:48:07.974Z,48.18
2023-02-13T20:49:29.258Z,48.73
2023-02-13T20:50:56.973Z,48.90
2023-02-13T20:52:20.522Z,48.93
2023-02-13T20:53:44.827Z,48.54
2023-02-13T20:55:06.580Z,48.57
2023-02-13T20:56:28.297Z,48.14
2023-02-13T20:57:49.352Z,47.94
2023-02-13T20:59:10.274Z,48.25
2023-02-13T21:00:31.278Z,48.42
2023-02-13T21:01:52.329Z,48.05
2023-02-13T21:03:13.428Z,48.08
2023-02-13T21:04:34.852Z,48.13
2023-02-13T21:05:55.650Z,48.13
2023-02-13T21:07:16.284Z,48.36
2023-02-13T21:08:42.323Z,48.13
2023-02-13T21:10:03.087Z,48.45
2023-02-13T21:11:26.100Z,48.32
2023-02-13T21:12:49.073Z,48.35
2023-02-13T21:14:10.660Z,48.02
2023-02-13T21:15:31.718Z,48.37
2023-02-13T21:16:52.729Z,48.15
2023-02-13T21:18:13.807Z,48.08
2023-02-13T21:19:36.861Z,47.87
2023-02-13T21:20:57.747Z,48.11
2023-02-13T21:22:18.893Z,48.12
2023-02-13T21:23:42.134Z,47.97
2023-02-13T21:25:02.749Z,48.24
2023-02-13T21:26:23.710Z,48.06
2023-02-13T21:27:44.539Z,48.14
2023-02-13T21:29:07.847Z,48.12
2023-02-13T21:30:30.864Z,47.70
2023-02-13T21:31:54.128Z,47.98
2023-02-13T21:33:15.313Z,47.99
2023-02-13T21:34:36.564Z,48.09
2023-02-13T21:36:00.575Z,48.09
2023-02-13T21:37:21.165Z,47.57
2023-02-13T21:38:44.354Z,48.23
2023-02-13T21:40:06.065Z,48.29
2023-02-13T21:41:26.939Z,48.18
2023-02-13T21:42:47.699Z,47.89
2023-02-13T21:44:09.953Z,48.37
2023-02-13T21:45:30.986Z,48.29
2023-02-13T21:46:52.251Z,47.99
2023-02-13T21:48:13.323Z,48.40
2023-02-13T21:49:36.408Z,48.01
2023-02-13T21:50:57.949Z,47.91
2023-02-13T21:52:18.964Z,47.64
2023-02-13T21:53:39.950Z,48.06
2023-02-13T21:55:07.407Z,47.97
2023-02-13T21:56:30.452Z,48.00
2023-02-13T21:57:51.298Z,48.06
2023-02-13T21:59:14.684Z,48.28
2023-02-13T22:00:38.117Z,48.34
2023-02-13T22:01:58.576Z,48.05
2023-02-13T22:03:21.571Z,47.58
2023-02-13T22:04:44.738Z,47.49
2023-02-13T22:06:06.225Z,47.83
2023-02-13T22:07:26.789Z,48.21
2023-02-13T22:08:47.723Z,48.11
2023-02-13T22:10:11.458Z,48.03
2023-02-13T22:11:32.443Z,47.80
2023-02-13T22:12:53.151Z,47.70
2023-02-13T22:14:15.349Z,47.89
2023-02-13T22:15:36.077Z,48.10
2023-02-13T22:16:57.196Z,48.31
2023-02-13T22:18:18.302Z,48.29
2023-02-13T22:19:39.283Z,47.72
2023-02-13T22:21:03.928Z,48.06
2023-02-13T22:22:24.940Z,47.58
2023-02-13T22:23:46.137Z,48.10
2023-02-13T22:25:07.334Z,48.04
2023-02-13T22:26:31.749Z,47.94
2023-02-13T22:27:52.913Z,47.56
2023-02-13T22:29:15.455Z,47.46
2023-02-13T22:30:36.383Z,48.24
2023-02-13T22:32:00.019Z,48.07
2023-02-13T22:33:21.172Z,47.92
2023-02-13T22:34:42.128Z,48.05
2023-02-13T22:36:03.100Z,47.91
2023-02-13T22:37:27.057Z,48.06
2023-02-13T22:38:48.590Z,47.62
2023-02-13T22:40:09.903Z,47.67
2023-02-13T22:41:33.359Z,47.73
2023-02-13T22:42:53.987Z,47.90